Time;durP1;ratioP1;P1;durP2;ratioP2;P2;SDS_P1;SDS_P2;PMS_P1;PMS_P2;Temp;Humidity;BMP_temperature;BMP_pressure;BME280_temperature;BME280_humidity;BME280_pressure;Samples;Min_cycle;Max_cycle;Signal;HPM_P1;HPM_P2
2023/08/27 04:01:36;;;;;;;4.30;2.57;;;16.50;97.30;;;;;;5809016;23;20575;-91
2023/08/27 04:04:38;;;;;;;2.90;2.23;;;16.50;97.30;;;;;;4992812;28;20471;-91
2023/08/27 04:08:08;;;;;;;;;;;;;;;;;;;;;
2023/08/27 04:10:33;;;;;;;2.90;1.80;;;16.50;97.30;;;;;;4956953;23;20538;-61
2023/08/27 04:12:59;;;;;;;3.27;2.20;;;16.50;97.30;;;;;;4991323;28;20520;-61
2023/08/27 04:15:26;;;;;;;2.40;1.93;;;16.50;97.30;;;;;;4990560;28;20211;-62
2023/08/27 04:17:51;;;;;;;3.30;1.67;;;16.50;97.30;;;;;;5004269;23;20531;-87
2023/08/27 04:20:17;;;;;;;1.90;1.80;;;16.50;97.30;;;;;;4991463;28;20871;-87
2023/08/27 04:22:43;;;;;;;3.13;2.37;;;16.50;97.30;;;;;;4991053;28;20308;-86
2023/08/27 04:25:08;;;;;;;2.53;1.40;;;16.50;97.30;;;;;;4992067;28;20181;-86
2023/08/27 04:27:34;;;;;;;3.40;2.57;;;16.40;97.30;;;;;;4992807;23;20268;-64
2023/08/27 04:29:59;;;;;;;1.40;1.30;;;16.40;97.30;;;;;;4989866;28;20337;-63
2023/08/27 04:32:25;;;;;;;4.30;1.83;;;16.40;97.30;;;;;;4970889;28;20210;-64
2023/08/27 04:34:51;;;;;;;2.60;2.13;;;16.40;97.30;;;;;;4970165;28;20187;-64
2023/08/27 04:37:16;;;;;;;22.63;2.30;;;16.40;97.30;;;;;;4970558;28;20253;-65
2023/08/27 04:39:42;;;;;;;5.50;3.13;;;16.40;97.30;;;;;;4971668;28;20182;-65
2023/08/27 04:42:07;;;;;;;3.07;1.83;;;16.40;97.30;;;;;;4970549;28;20737;-65
2023/08/27 04:44:33;;;;;;;2.20;2.07;;;16.40;97.30;;;;;;4968955;28;20567;-65
2023/08/27 04:47:00;;;;;;;3.20;1.70;;;16.40;97.30;;;;;;4971021;28;20186;-64
2023/08/27 04:49:26;;;;;;;8.63;3.00;;;16.40;97.30;;;;;;4971132;28;20203;-64
2023/08/27 04:51:51;;;;;;;6.00;2.10;;;16.40;97.30;;;;;;4971515;28;21376;-67
2023/08/27 04:54:17;;;;;;;4.40;2.80;;;16.40;97.30;;;;;;4971406;28;20654;-64
2023/08/27 04:56:43;;;;;;;3.90;2.30;;;16.40;97.30;;;;;;4971243;28;20229;-64
2023/08/27 04:59:08;;;;;;;6.33;2.70;;;16.50;97.30;;;;;;4969921;28;21475;-64
2023/08/27 05:01:34;;;;;;;3.27;2.40;;;16.50;97.30;;;;;;4969792;28;20694;-65
2023/08/27 05:04:00;;;;;;;2.57;2.43;;;16.50;97.30;;;;;;4971224;28;20179;-65
2023/08/27 05:06:25;;;;;;;2.57;1.40;;;16.50;97.30;;;;;;4969784;28;20197;-65
2023/08/27 05:08:51;;;;;;;2.60;2.37;;;16.50;97.30;;;;;;4969286;28;20186;-64
2023/08/27 05:11:16;;;;;;;2.30;1.90;;;16.50;97.30;;;;;;4985074;28;20206;-64
2023/08/27 05:13:43;;;;;;;3.13;2.07;;;16.50;97.30;;;;;;4974645;28;20183;-65
2023/08/27 05:16:08;;;;;;;1.77;1.43;;;16.50;97.30;;;;;;4975776;28;20186;-64
2023/08/27 05:18:34;;;;;;;2.00;1.90;;;16.60;97.30;;;;;;4975783;28;20413;-65
2023/08/27 05:20:59;;;;;;;7.07;2.73;;;16.60;97.30;;;;;;4978192;28;20410;-64
2023/08/27 05:23:26;;;;;;;1.07;0.97;;;16.60;97.30;;;;;;4979717;28;20185;-64
2023/08/27 05:25:51;;;;;;;3.67;2.60;;;16.60;97.30;;;;;;4969038;28;20316;-64
2023/08/27 05:28:17;;;;;;;3.30;2.50;;;16.70;97.30;;;;;;4969564;28;20560;-64
2023/08/27 05:30:42;;;;;;;9.60;1.57;;;16.70;97.30;;;;;;4973414;28;20198;-65
2023/08/27 05:33:08;;;;;;;1.50;1.40;;;16.70;97.30;;;;;;4973955;28;20693;-65
2023/08/27 05:35:34;;;;;;;4.47;2.23;;;16.70;97.30;;;;;;4974974;28;20710;-65
2023/08/27 05:37:59;;;;;;;2.27;2.00;;;16.70;97.30;;;;;;4975671;28;20250;-65
2023/08/27 05:40:25;;;;;;;11.10;2.43;;;16.80;97.30;;;;;;4976919;28;20240;-65
2023/08/27 05:42:51;;;;;;;7.03;2.20;;;16.80;97.30;;;;;;4979700;28;20560;-64
2023/08/27 05:45:16;;;;;;;4.03;2.50;;;16.80;97.30;;;;;;4968691;28;20197;-65
2023/08/27 05:47:42;;;;;;;4.70;2.00;;;16.80;97.30;;;;;;4974674;28;20433;-64
2023/08/27 05:50:08;;;;;;;1.63;1.60;;;16.80;97.30;;;;;;4980939;28;20177;-64
2023/08/27 05:52:34;;;;;;;2.60;1.80;;;16.90;97.30;;;;;;4973557;28;20232;-66
2023/08/27 05:54:59;;;;;;;2.97;2.77;;;16.90;97.30;;;;;;4968050;28;20422;-66
2023/08/27 05:57:25;;;;;;;5.30;2.70;;;16.90;97.30;;;;;;4972276;28;20229;-65
2023/08/27 05:59:51;;;;;;;8.90;1.90;;;17.00;97.30;;;;;;4969837;28;20598;-65
2023/08/27 06:02:17;;;;;;;2.43;2.23;;;17.00;97.30;;;;;;4973788;28;20202;-65
2023/08/27 06:04:43;;;;;;;2.23;1.67;;;17.00;97.30;;;;;;4968338;28;20663;-65
2023/08/27 06:07:09;;;;;;;2.23;1.97;;;17.10;97.30;;;;;;4969170;28;20505;-65
2023/08/27 06:09:35;;;;;;;2.87;2.67;;;17.10;97.30;;;;;;4979451;28;20654;-65
2023/08/27 06:12:02;;;;;;;2.47;2.30;;;17.20;97.30;;;;;;4974135;28;20447;-65
2023/08/27 06:14:27;;;;;;;1.70;1.60;;;17.20;97.30;;;;;;4974906;28;20662;-65
2023/08/27 06:16:53;;;;;;;7.73;2.70;;;17.20;97.30;;;;;;4974984;28;20464;-66
2023/08/27 06:19:19;;;;;;;2.50;1.87;;;17.30;97.30;;;;;;4974755;28;20179;-64
2023/08/27 06:21:44;;;;;;;2.60;1.53;;;17.30;97.30;;;;;;4982976;28;20689;-64
2023/08/27 06:24:10;;;;;;;2.97;2.33;;;17.30;97.30;;;;;;4974962;28;20224;-64
2023/08/27 06:26:35;;;;;;;2.07;1.93;;;17.40;97.30;;;;;;4977226;28;20177;-64
2023/08/27 06:29:01;;;;;;;2.90;2.70;;;17.40;97.30;;;;;;4974787;28;20222;-66
2023/08/27 06:31:26;;;;;;;2.87;2.37;;;17.50;97.30;;;;;;4978873;28;20217;-65
2023/08/27 06:33:52;;;;;;;3.60;1.90;;;17.50;97.30;;;;;;4982243;28;20650;-64
2023/08/27 06:36:18;;;;;;;2.40;2.27;;;17.50;97.30;;;;;;4981143;28;20520;-64
2023/08/27 06:38:43;;;;;;;1.60;1.50;;;17.60;97.30;;;;;;4972903;28;20185;-64
2023/08/27 06:41:09;;;;;;;2.80;1.80;;;17.60;97.30;;;;;;4980195;28;20209;-64
2023/08/27 06:43:34;;;;;;;1.83;1.20;;;17.60;97.30;;;;;;4983683;28;20661;-64
2023/08/27 06:46:00;;;;;;;4.47;2.87;;;17.60;97.30;;;;;;4975829;28;20598;-64
2023/08/27 06:48:25;;;;;;;2.13;1.67;;;17.60;97.30;;;;;;4967086;28;20509;-64
2023/08/27 06:50:51;;;;;;;1.83;1.63;;;17.60;97.30;;;;;;4968186;28;20203;-64
2023/08/27 06:53:18;;;;;;;2.97;2.20;;;17.60;97.30;;;;;;4968131;28;20678;-64
2023/08/27 06:55:43;;;;;;;3.70;3.33;;;17.60;97.30;;;;;;4966852;28;20190;-64
2023/08/27 06:58:09;;;;;;;2.60;2.40;;;17.70;97.30;;;;;;4967714;28;20413;-64
2023/08/27 07:00:35;;;;;;;1.77;1.73;;;17.70;97.30;;;;;;4968525;28;20203;-64
2023/08/27 07:03:01;;;;;;;3.10;2.27;;;17.70;97.30;;;;;;4966599;28;20206;-64
2023/08/27 07:05:27;;;;;;;1.53;1.47;;;17.70;97.30;;;;;;4974701;28;20449;-64
2023/08/27 07:07:52;;;;;;;2.30;1.90;;;17.70;97.30;;;;;;4976747;28;20178;-64
2023/08/27 07:10:18;;;;;;;1.50;1.40;;;17.80;97.30;;;;;;4978814;28;20187;-65
2023/08/27 07:12:44;;;;;;;1.83;1.40;;;17.80;97.30;;;;;;4976671;28;20182;-64
2023/08/27 07:15:10;;;;;;;2.00;1.83;;;17.80;97.30;;;;;;4974368;28;20710;-64
2023/08/27 07:17:38;;;;;;;3.77;1.80;;;17.80;97.30;;;;;;4971575;28;20513;-64
2023/08/27 07:20:07;;;;;;;1.37;1.27;;;17.90;97.30;;;;;;4978236;28;20241;-64
2023/08/27 07:22:33;;;;;;;1.73;1.63;;;17.90;97.30;;;;;;4985626;28;20468;-64
2023/08/27 07:24:59;;;;;;;2.27;2.07;;;18.00;97.30;;;;;;4976226;28;20435;-64
2023/08/27 07:27:24;;;;;;;1.70;1.60;;;18.00;97.30;;;;;;4976918;28;20480;-66
2023/08/27 07:29:50;;;;;;;9.07;2.27;;;18.00;97.30;;;;;;4979501;28;20721;-65
2023/08/27 07:32:16;;;;;;;3.10;2.53;;;18.10;97.30;;;;;;4985612;28;20281;-64
2023/08/27 07:34:42;;;;;;;3.10;2.60;;;18.10;97.30;;;;;;4983325;28;20181;-64
2023/08/27 07:37:08;;;;;;;1.20;1.10;;;18.10;97.30;;;;;;4969213;28;20413;-64
2023/08/27 07:39:34;;;;;;;3.33;1.30;;;18.10;97.30;;;;;;4974788;28;20234;-67
2023/08/27 07:42:00;;;;;;;1.70;1.60;;;18.10;97.30;;;;;;4978036;28;20481;-64
2023/08/27 07:44:25;;;;;;;4.70;2.33;;;18.10;97.30;;;;;;4977541;28;20209;-66
2023/08/27 07:46:51;;;;;;;1.67;1.60;;;18.10;97.30;;;;;;4979080;28;20197;-64
2023/08/27 07:49:17;;;;;;;2.93;2.73;;;18.10;97.30;;;;;;4971022;28;20658;-64
2023/08/27 07:51:42;;;;;;;5.90;2.20;;;18.20;97.30;;;;;;4978097;28;20293;-64
2023/08/27 07:54:08;;;;;;;1.77;1.50;;;18.20;97.30;;;;;;4969989;28;20183;-65
2023/08/27 07:56:34;;;;;;;3.67;2.07;;;18.20;97.30;;;;;;4971008;28;20221;-64
2023/08/27 07:58:59;;;;;;;6.50;2.60;;;18.20;97.30;;;;;;4974704;28;20206;-64
2023/08/27 08:01:26;;;;;;;1.73;1.67;;;18.20;97.30;;;;;;4969741;28;20757;-65
2023/08/27 08:03:52;;;;;;;2.40;1.60;;;18.20;97.30;;;;;;4970440;28;20209;-64
2023/08/27 08:06:17;;;;;;;7.57;2.67;;;18.20;97.30;;;;;;4970987;28;20480;-64
2023/08/27 08:08:43;;;;;;;1.40;1.30;;;18.20;97.30;;;;;;4971386;28;20178;-65
2023/08/27 08:11:08;;;;;;;3.73;2.50;;;18.20;97.30;;;;;;4969761;28;20282;-64
2023/08/27 08:13:36;;;;;;;5.83;2.23;;;18.20;97.30;;;;;;4969729;28;20171;-64
2023/08/27 08:16:02;;;;;;;2.23;2.07;;;18.30;97.30;;;;;;4969844;28;20596;-64
2023/08/27 08:18:28;;;;;;;4.20;1.83;;;18.30;97.30;;;;;;4977894;28;20928;-64
2023/08/27 08:20:54;;;;;;;2.20;1.80;;;18.30;97.30;;;;;;4981913;28;20436;-67
2023/08/27 08:23:19;;;;;;;3.23;2.27;;;18.40;97.30;;;;;;4981449;28;20205;-64
2023/08/27 08:25:49;;;;;;;2.30;2.10;;;18.40;97.30;;;;;;4980087;28;20432;-67
2023/08/27 08:28:15;;;;;;;1.57;1.43;;;18.50;97.30;;;;;;4981786;28;20222;-64
2023/08/27 08:30:46;;;;;;;6.03;1.67;;;18.60;97.30;;;;;;4983943;28;20442;-64
2023/08/27 08:33:11;;;;;;;3.00;2.37;;;18.60;97.30;;;;;;4978365;28;20422;-63
2023/08/27 08:35:37;;;;;;;2.13;1.50;;;18.60;97.30;;;;;;4980326;28;20457;-64
2023/08/27 08:38:03;;;;;;;2.27;2.07;;;18.70;97.30;;;;;;4981298;28;20174;-64
2023/08/27 08:40:29;;;;;;;12.90;3.27;;;18.70;97.30;;;;;;4976782;28;20682;-66
2023/08/27 08:42:58;;;;;;;4.53;2.50;;;18.70;97.30;;;;;;4973666;28;20210;-64
2023/08/27 08:45:36;;;;;;;4.47;1.60;;;18.80;97.30;;;;;;4977077;28;20417;-64
2023/08/27 08:48:02;;;;;;;3.03;2.60;;;18.80;97.30;;;;;;4979020;28;20422;-63
2023/08/27 08:50:30;;;;;;;2.20;1.87;;;18.80;97.30;;;;;;4972434;28;20453;-64
2023/08/27 08:52:58;;;;;;;2.13;1.70;;;18.80;97.30;;;;;;4981295;28;20459;-64
2023/08/27 08:55:26;;;;;;;1.40;1.30;;;18.80;97.30;;;;;;4977281;28;20422;-66
2023/08/27 08:57:58;;;;;;;1.50;1.40;;;18.80;97.30;;;;;;4973753;28;20428;-64
2023/08/27 09:00:25;;;;;;;3.40;3.13;;;18.80;97.30;;;;;;4978698;28;20437;-64
2023/08/27 09:02:51;;;;;;;1.83;1.73;;;18.90;97.30;;;;;;4976247;28;20981;-64
2023/08/27 09:05:19;;;;;;;1.63;1.50;;;18.90;97.30;;;;;;4979522;28;20417;-64
2023/08/27 09:07:46;;;;;;;10.87;3.83;;;18.90;97.30;;;;;;4972315;28;20487;-64
2023/08/27 09:10:13;;;;;;;9.83;1.60;;;18.90;97.30;;;;;;4978498;28;20456;-65
2023/08/27 09:12:40;;;;;;;1.20;1.07;;;19.00;97.30;;;;;;4979334;28;20730;-65
2023/08/27 09:15:09;;;;;;;1.90;1.70;;;19.00;97.30;;;;;;4981989;28;20933;-64
2023/08/27 09:17:35;;;;;;;1.97;1.33;;;19.10;97.30;;;;;;4961902;28;20821;-64
2023/08/27 09:20:00;;;;;;;1.73;1.63;;;19.20;97.30;;;;;;4968099;28;20426;-64
2023/08/27 09:22:26;;;;;;;1.47;1.40;;;19.20;97.30;;;;;;4969268;28;20466;-64
2023/08/27 09:24:52;;;;;;;1.07;1.00;;;19.30;97.30;;;;;;4969411;28;20183;-64
2023/08/27 09:27:19;;;;;;;2.40;1.47;;;19.30;97.30;;;;;;4969223;28;20764;-64
2023/08/27 09:29:46;;;;;;;1.47;1.27;;;19.40;97.30;;;;;;4970791;28;20565;-64
2023/08/27 09:32:23;;;;;;;1.90;1.73;;;19.40;97.30;;;;;;4966801;28;20500;-64
2023/08/27 09:34:49;;;;;;;1.23;1.13;;;19.40;97.30;;;;;;4966724;28;20425;-64
2023/08/27 09:37:15;;;;;;;1.93;1.87;;;19.50;97.30;;;;;;4968078;28;20429;-64
2023/08/27 09:39:44;;;;;;;2.40;1.30;;;19.60;97.30;;;;;;4968898;28;20424;-65
2023/08/27 09:42:13;;;;;;;4.57;2.30;;;19.60;97.30;;;;;;4967119;28;20226;-65
2023/08/27 09:44:39;;;;;;;3.40;2.03;;;19.70;97.30;;;;;;4967132;28;20425;-64
2023/08/27 09:47:05;;;;;;;1.50;1.40;;;19.70;97.30;;;;;;4970008;28;20426;-65
2023/08/27 09:49:31;;;;;;;2.67;1.67;;;19.70;97.30;;;;;;4970191;28;20215;-65
2023/08/27 09:51:58;;;;;;;1.77;1.67;;;19.70;97.30;;;;;;4972243;28;20477;-64
2023/08/27 09:54:29;;;;;;;1.63;1.00;;;19.70;97.30;;;;;;4973738;28;20522;-65
2023/08/27 09:56:59;;;;;;;1.83;1.20;;;19.60;97.30;;;;;;4976273;28;20461;-65
2023/08/27 09:59:25;;;;;;;2.50;1.50;;;19.70;97.30;;;;;;4969023;28;20462;-65
2023/08/27 10:01:52;;;;;;;10.53;1.73;;;19.70;97.30;;;;;;4975759;28;20469;-64
2023/08/27 10:04:19;;;;;;;1.73;1.63;;;19.70;97.30;;;;;;4978646;28;20429;-65
2023/08/27 10:06:45;;;;;;;2.17;1.93;;;19.80;97.30;;;;;;4966473;28;20480;-64
2023/08/27 10:09:11;;;;;;;2.13;1.73;;;19.80;97.30;;;;;;4975051;28;20473;-64
2023/08/27 10:11:38;;;;;;;7.43;2.20;;;19.90;97.30;;;;;;4971793;28;20469;-64
2023/08/27 10:14:04;;;;;;;3.10;1.40;;;20.00;97.30;;;;;;4976795;28;20188;-67
2023/08/27 10:16:36;;;;;;;2.23;1.10;;;20.00;97.30;;;;;;4973338;28;20425;-64
2023/08/27 10:19:04;;;;;;;1.13;1.10;;;20.10;97.30;;;;;;4972129;28;20418;-64
2023/08/27 10:21:30;;;;;;;4.93;2.57;;;20.10;97.30;;;;;;4972447;28;20501;-64
2023/08/27 10:23:57;;;;;;;2.20;1.50;;;20.20;97.30;;;;;;4971518;28;20419;-65
2023/08/27 10:26:23;;;;;;;2.70;1.20;;;20.20;97.30;;;;;;4970052;28;20957;-64
2023/08/27 10:28:53;;;;;;;1.53;1.10;;;20.30;97.30;;;;;;4974918;28;20464;-64
2023/08/27 10:31:18;;;;;;;1.53;1.23;;;20.40;97.30;;;;;;4970602;28;20492;-65
2023/08/27 10:33:44;;;;;;;1.60;0.97;;;20.50;97.30;;;;;;4975640;28;20794;-63
2023/08/27 10:36:20;;;;;;;1.30;1.20;;;20.60;97.30;;;;;;4967933;28;20182;-65
2023/08/27 10:38:48;;;;;;;1.70;1.17;;;20.70;97.30;;;;;;4967627;28;20185;-65
2023/08/27 10:41:21;;;;;;;1.33;1.23;;;20.80;97.30;;;;;;4976102;28;20913;-65
2023/08/27 10:43:47;;;;;;;4.03;1.83;;;20.90;97.30;;;;;;4967355;28;20421;-65
2023/08/27 10:46:17;;;;;;;1.27;1.10;;;21.00;97.30;;;;;;4977456;28;20432;-65
2023/08/27 10:48:49;;;;;;;2.97;1.53;;;21.00;97.30;;;;;;4975475;28;20182;-65
2023/08/27 10:51:16;;;;;;;3.33;1.73;;;21.00;97.30;;;;;;4983749;28;20487;-65
2023/08/27 10:53:51;;;;;;;1.60;1.50;;;21.10;97.30;;;;;;4980590;28;20406;-65
2023/08/27 10:56:31;;;;;;;1.50;1.40;;;21.10;97.30;;;;;;4982866;28;20440;-65
2023/08/27 10:59:01;;;;;;;2.80;1.70;;;21.00;97.30;;;;;;4975279;28;20409;-65
2023/08/27 11:01:27;;;;;;;1.53;1.30;;;21.10;97.30;;;;;;4970142;28;20469;-65
2023/08/27 11:04:01;;;;;;;1.17;1.13;;;21.00;97.30;;;;;;4967949;28;20476;-64
2023/08/27 11:06:46;;;;;;;1.87;1.50;;;21.10;97.30;;;;;;4987712;28;20677;-65
2023/08/27 11:09:17;;;;;;;1.83;1.73;;;21.10;97.30;;;;;;4973022;28;20976;-65
2023/08/27 11:11:53;;;;;;;1.20;1.10;;;21.10;97.30;;;;;;4968057;28;20485;-65
2023/08/27 11:14:20;;;;;;;3.10;1.47;;;21.20;97.30;;;;;;4977421;28;20431;-65
2023/08/27 11:16:53;;;;;;;2.23;2.03;;;21.30;97.30;;;;;;4976838;28;20974;-65
2023/08/27 11:19:37;;;;;;;3.63;1.90;;;21.40;97.30;;;;;;4976057;28;20445;-66
2023/08/27 11:22:11;;;;;;;1.33;1.10;;;21.50;97.30;;;;;;4966283;28;20851;-65
2023/08/27 11:24:45;;;;;;;1.07;0.97;;;21.50;97.30;;;;;;4969122;28;21041;-65
2023/08/27 11:27:13;;;;;;;3.23;1.87;;;21.60;97.30;;;;;;4980535;28;20501;-64
2023/08/27 11:29:40;;;;;;;2.20;1.73;;;21.60;97.30;;;;;;4964458;28;20984;-65
2023/08/27 11:32:07;;;;;;;3.80;2.30;;;21.70;97.30;;;;;;4966964;28;21081;-64
2023/08/27 11:34:37;;;;;;;2.10;1.70;;;21.70;97.30;;;;;;4969336;28;20422;-65
2023/08/27 11:37:05;;;;;;;2.40;1.20;;;21.70;97.30;;;;;;4971098;28;20924;-65
2023/08/27 11:39:33;;;;;;;3.97;2.63;;;21.80;97.30;;;;;;4975106;28;20464;-66
2023/08/27 11:41:59;;;;;;;2.43;1.60;;;21.90;97.30;;;;;;4967493;28;20481;-65
2023/08/27 11:44:24;;;;;;;1.40;1.30;;;21.90;97.30;;;;;;4966595;28;20444;-65
2023/08/27 11:46:51;;;;;;;2.17;1.60;;;22.00;97.30;;;;;;4971334;28;20187;-65
2023/08/27 11:49:28;;;;;;;2.40;1.37;;;22.00;97.30;;;;;;4970950;28;20189;-65
2023/08/27 11:51:56;;;;;;;1.17;1.07;;;22.10;97.30;;;;;;4966197;28;20739;-64
2023/08/27 11:54:24;;;;;;;6.93;1.20;;;22.20;97.30;;;;;;4971718;28;20898;-65
2023/08/27 11:56:51;;;;;;;2.17;1.80;;;22.20;97.30;;;;;;4972145;28;20784;-65
2023/08/27 11:59:17;;;;;;;3.17;1.67;;;22.20;97.10;;;;;;4972071;28;20453;-65
2023/08/27 12:01:43;;;;;;;1.63;1.33;;;22.10;96.60;;;;;;4970739;28;20473;-65
2023/08/27 12:04:11;;;;;;;2.13;1.20;;;22.00;96.70;;;;;;4970403;28;20265;-65
2023/08/27 12:06:36;;;;;;;1.93;1.40;;;22.00;97.30;;;;;;4969640;28;20191;-65
2023/08/27 12:09:02;;;;;;;1.33;1.10;;;21.90;97.30;;;;;;4970287;28;20462;-65
2023/08/27 12:11:30;;;;;;;1.83;1.30;;;21.80;97.30;;;;;;4969214;28;20213;-65
2023/08/27 12:13:57;;;;;;;1.53;1.40;;;21.70;97.30;;;;;;4967846;28;20446;-65
2023/08/27 12:16:30;;;;;;;1.20;1.10;;;21.60;97.10;;;;;;4968947;28;20481;-65
2023/08/27 12:19:05;;;;;;;3.70;1.20;;;21.50;97.30;;;;;;4970170;28;20516;-65
2023/08/27 12:21:45;;;;;;;1.67;1.40;;;21.40;97.30;;;;;;4969466;28;20532;-65
2023/08/27 12:24:29;;;;;;;1.40;1.37;;;21.40;97.30;;;;;;4971961;28;20714;-65
2023/08/27 12:26:58;;;;;;;1.10;1.10;;;21.30;97.30;;;;;;4964623;28;20438;-65
2023/08/27 12:29:27;;;;;;;1.77;1.50;;;21.20;97.30;;;;;;4972631;28;21024;-65
2023/08/27 12:31:53;;;;;;;32.13;3.00;;;21.20;97.30;;;;;;4970053;28;20450;-65
2023/08/27 12:34:19;;;;;;;1.67;1.50;;;21.10;97.30;;;;;;4966618;28;20430;-65
2023/08/27 12:36:44;;;;;;;1.90;1.80;;;21.00;97.30;;;;;;4968666;28;20831;-65
2023/08/27 12:39:10;;;;;;;3.40;1.63;;;21.00;97.30;;;;;;4969733;28;20206;-66
2023/08/27 12:41:36;;;;;;;1.27;1.17;;;20.90;97.30;;;;;;4969728;28;20222;-65
2023/08/27 12:44:03;;;;;;;1.70;1.03;;;20.90;97.30;;;;;;4969221;28;20589;-66
2023/08/27 12:46:28;;;;;;;2.50;1.67;;;20.80;97.30;;;;;;4969275;28;20438;-65
2023/08/27 12:48:54;;;;;;;1.57;1.23;;;20.70;97.30;;;;;;4971146;28;20925;-65
2023/08/27 12:51:19;;;;;;;1.20;1.10;;;20.70;97.30;;;;;;4975074;28;20577;-65
2023/08/27 12:53:45;;;;;;;1.10;1.00;;;20.60;96.80;;;;;;4971827;28;20182;-65
2023/08/27 12:56:10;;;;;;;1.53;0.90;;;20.50;96.80;;;;;;4971703;28;20194;-65
2023/08/27 12:58:36;;;;;;;3.37;0.93;;;20.50;96.50;;;;;;4971720;28;20259;-65
2023/08/27 13:01:02;;;;;;;0.77;0.73;;;20.50;97.20;;;;;;4971631;28;20256;-65
2023/08/27 13:03:27;;;;;;;1.77;1.20;;;20.50;97.30;;;;;;4971076;28;20228;-65
2023/08/27 13:05:57;;;;;;;1.10;1.00;;;20.50;97.30;;;;;;4969779;28;20182;-66
2023/08/27 13:08:23;;;;;;;1.40;1.30;;;20.50;97.30;;;;;;4970110;28;20591;-65
2023/08/27 13:10:48;;;;;;;2.17;2.00;;;20.50;97.30;;;;;;4969968;28;20454;-65
2023/08/27 13:13:14;;;;;;;1.10;1.00;;;20.50;97.30;;;;;;4971177;28;20273;-66
2023/08/27 13:15:39;;;;;;;1.33;1.00;;;20.40;97.30;;;;;;4969326;28;20194;-66
2023/08/27 13:18:05;;;;;;;1.60;1.40;;;20.40;97.30;;;;;;4971250;28;20198;-66
2023/08/27 13:20:30;;;;;;;4.30;1.23;;;20.30;97.30;;;;;;4970672;28;20721;-66
2023/08/27 13:22:56;;;;;;;3.53;1.60;;;20.20;97.30;;;;;;4969740;28;20530;-65
2023/08/27 13:25:22;;;;;;;4.50;2.13;;;20.20;97.30;;;;;;4969570;28;20273;-66
2023/08/27 13:27:47;;;;;;;3.43;2.20;;;20.20;97.30;;;;;;4970631;28;20847;-66
2023/08/27 13:30:13;;;;;;;3.17;1.93;;;20.20;97.30;;;;;;4970458;28;20183;-65
2023/08/27 13:32:38;;;;;;;1.67;1.57;;;20.20;97.30;;;;;;4970578;28;20669;-65
2023/08/27 13:35:05;;;;;;;1.47;1.40;;;20.20;97.30;;;;;;4969206;28;20190;-66
2023/08/27 13:37:32;;;;;;;1.20;1.10;;;20.10;97.30;;;;;;4970777;28;20213;-65
2023/08/27 13:39:58;;;;;;;2.37;1.53;;;20.20;97.30;;;;;;4969527;28;20769;-65
2023/08/27 13:42:24;;;;;;;10.03;1.33;;;20.20;97.30;;;;;;4970572;28;20484;-65
2023/08/27 13:44:50;;;;;;;2.87;1.27;;;20.10;97.30;;;;;;4971849;28;20190;-65
2023/08/27 13:47:15;;;;;;;3.63;1.87;;;20.00;97.30;;;;;;4967842;28;20444;-65
2023/08/27 13:49:41;;;;;;;2.23;1.73;;;19.90;97.30;;;;;;4965963;28;20188;-65
2023/08/27 13:52:06;;;;;;;1.03;0.93;;;19.90;97.30;;;;;;4973554;28;20671;-65
2023/08/27 13:54:32;;;;;;;1.60;1.50;;;19.80;97.30;;;;;;4965634;28;20260;-65
2023/08/27 13:56:58;;;;;;;1.63;0.90;;;19.70;97.30;;;;;;4968574;28;20301;-65
2023/08/27 13:59:23;;;;;;;1.70;1.60;;;19.70;97.30;;;;;;4969227;28;20182;-65
2023/08/27 14:01:49;;;;;;;7.37;2.17;;;19.70;97.30;;;;;;4967733;28;20230;-65
2023/08/27 14:04:14;;;;;;;3.33;1.37;;;19.70;97.30;;;;;;4967801;28;20277;-66
2023/08/27 14:06:40;;;;;;;0.80;0.80;;;19.70;97.30;;;;;;4966132;28;20170;-65
2023/08/27 14:09:06;;;;;;;1.40;1.10;;;19.80;97.30;;;;;;4967575;28;20197;-65
2023/08/27 14:11:31;;;;;;;2.03;1.30;;;19.80;97.30;;;;;;4967438;28;20202;-65
2023/08/27 14:13:57;;;;;;;1.03;1.00;;;20.00;97.30;;;;;;4967183;28;20214;-65
2023/08/27 14:16:23;;;;;;;1.07;1.00;;;20.10;97.30;;;;;;4966492;28;20182;-65
2023/08/27 14:18:48;;;;;;;2.43;1.30;;;20.30;97.30;;;;;;4969889;28;20725;-65
2023/08/27 14:21:14;;;;;;;1.00;0.90;;;20.40;97.30;;;;;;4969902;28;20206;-65
2023/08/27 14:23:40;;;;;;;0.90;0.80;;;20.50;97.30;;;;;;4969834;28;20563;-65
2023/08/27 14:26:05;;;;;;;1.03;0.90;;;20.50;97.30;;;;;;4966353;28;20194;-65
2023/08/27 14:28:31;;;;;;;0.90;0.80;;;20.60;97.30;;;;;;4961601;28;20217;-65
2023/08/27 14:30:56;;;;;;;0.83;0.77;;;20.60;97.30;;;;;;4968597;28;20272;-65
2023/08/27 14:33:22;;;;;;;1.73;1.40;;;20.60;97.30;;;;;;4965727;28;20183;-65
2023/08/27 14:35:47;;;;;;;1.23;1.20;;;20.60;97.30;;;;;;4959186;28;20198;-65
2023/08/27 14:38:13;;;;;;;1.57;1.07;;;20.50;97.30;;;;;;4969538;28;20256;-65
2023/08/27 14:40:38;;;;;;;1.37;1.03;;;20.50;97.30;;;;;;4969859;28;20750;-65
2023/08/27 14:43:04;;;;;;;0.90;0.80;;;20.50;97.30;;;;;;4969382;28;20765;-65
2023/08/27 14:45:31;;;;;;;1.73;1.20;;;20.50;97.30;;;;;;4962154;28;20709;-65
2023/08/27 14:47:57;;;;;;;1.00;0.90;;;20.50;97.30;;;;;;4960583;28;20233;-65
2023/08/27 14:50:23;;;;;;;1.63;1.30;;;20.50;97.30;;;;;;4969874;28;20422;-65
2023/08/27 14:52:48;;;;;;;1.00;0.90;;;20.50;97.30;;;;;;4965006;28;20187;-66
2023/08/27 14:55:14;;;;;;;0.90;0.83;;;20.50;97.30;;;;;;4957224;28;20607;-65
2023/08/27 14:57:39;;;;;;;1.20;1.10;;;20.40;97.30;;;;;;4967108;28;20230;-65
2023/08/27 15:00:06;;;;;;;1.20;1.10;;;20.40;97.30;;;;;;4968342;28;20213;-65
2023/08/27 15:02:31;;;;;;;1.10;1.00;;;20.40;97.30;;;;;;4967844;28;20213;-65
2023/08/27 15:04:57;;;;;;;1.23;1.17;;;20.40;97.30;;;;;;4961697;28;20802;-65
2023/08/27 15:07:23;;;;;;;0.90;0.80;;;20.30;97.30;;;;;;4970986;28;20643;-65
2023/08/27 15:09:49;;;;;;;0.80;0.80;;;20.20;97.30;;;;;;4970030;28;20610;-65
2023/08/27 15:12:17;;;;;;;1.00;0.90;;;20.20;97.30;;;;;;4972394;28;20201;-65
2023/08/27 15:14:43;;;;;;;1.10;1.10;;;20.20;97.30;;;;;;4974155;28;20886;-65
2023/08/27 15:17:09;;;;;;;1.70;1.10;;;20.20;97.30;;;;;;4965263;28;20429;-65
2023/08/27 15:19:35;;;;;;;3.53;1.10;;;20.20;97.30;;;;;;4971026;28;20428;-65
2023/08/27 15:22:01;;;;;;;1.00;0.97;;;20.10;97.30;;;;;;4971898;28;20428;-65
2023/08/27 15:24:26;;;;;;;1.00;0.80;;;20.10;97.30;;;;;;4973993;28;20182;-65
2023/08/27 15:26:52;;;;;;;1.70;1.10;;;20.10;97.30;;;;;;4971613;28;20586;-65
2023/08/27 15:29:17;;;;;;;1.43;1.27;;;20.10;97.30;;;;;;4971819;28;20230;-65
2023/08/27 15:31:43;;;;;;;1.37;1.33;;;20.10;97.30;;;;;;4973092;28;20210;-66
2023/08/27 15:34:10;;;;;;;2.23;1.23;;;20.10;97.30;;;;;;4968723;28;20194;-66
2023/08/27 15:36:36;;;;;;;1.30;1.20;;;20.10;97.30;;;;;;4970145;28;20181;-65
2023/08/27 15:39:02;;;;;;;1.10;1.00;;;20.10;97.30;;;;;;4973194;28;20421;-65
2023/08/27 15:41:31;;;;;;;0.90;0.80;;;20.00;97.30;;;;;;4968418;28;20827;-65
2023/08/27 15:43:59;;;;;;;1.00;0.90;;;20.00;97.30;;;;;;4963297;28;20434;-66
2023/08/27 15:46:26;;;;;;;2.40;0.93;;;20.00;97.30;;;;;;4973449;28;20440;-65
2023/08/27 15:48:51;;;;;;;1.00;0.90;;;20.00;97.30;;;;;;4973369;28;20422;-65
2023/08/27 15:51:17;;;;;;;1.40;1.20;;;20.00;97.30;;;;;;4972612;28;20961;-66
2023/08/27 15:53:42;;;;;;;1.57;0.90;;;20.00;97.30;;;;;;4963699;28;20274;-65
2023/08/27 15:56:08;;;;;;;1.93;1.07;;;19.90;97.30;;;;;;4968731;28;20546;-65
2023/08/27 15:58:34;;;;;;;0.90;0.80;;;19.90;97.30;;;;;;4961648;28;20640;-66
2023/08/27 16:01:02;;;;;;;1.33;1.23;;;19.90;97.30;;;;;;4968258;28;20223;-65
2023/08/27 16:03:27;;;;;;;1.73;1.20;;;19.80;97.30;;;;;;4968355;28;20213;-66
2023/08/27 16:05:53;;;;;;;0.80;0.80;;;19.80;97.30;;;;;;4970368;28;20435;-66
2023/08/27 16:08:18;;;;;;;1.20;1.17;;;19.80;97.30;;;;;;4968285;28;20555;-65
2023/08/27 16:10:44;;;;;;;1.97;1.37;;;19.80;97.30;;;;;;4969683;28;20210;-66
2023/08/27 16:13:10;;;;;;;1.20;1.10;;;19.70;97.30;;;;;;4970782;28;20677;-65
2023/08/27 16:15:35;;;;;;;1.10;1.00;;;19.70;97.30;;;;;;4956839;28;20250;-65
2023/08/27 16:18:01;;;;;;;1.20;1.03;;;19.70;97.30;;;;;;4970849;28;20298;-65
2023/08/27 16:20:27;;;;;;;1.00;0.90;;;19.70;97.30;;;;;;4972271;28;20213;-66
2023/08/27 16:22:52;;;;;;;1.83;1.73;;;19.60;97.30;;;;;;4963964;28;20219;-66
2023/08/27 16:25:18;;;;;;;1.37;1.20;;;19.60;97.30;;;;;;4971159;28;20182;-65
2023/08/27 16:27:43;;;;;;;1.10;1.10;;;19.50;97.30;;;;;;4968505;28;20210;-65
2023/08/27 16:30:10;;;;;;;4.33;1.50;;;19.50;97.30;;;;;;4966528;28;20650;-66
2023/08/27 16:32:37;;;;;;;1.60;1.23;;;19.50;97.30;;;;;;4964974;28;20571;-66
2023/08/27 16:35:03;;;;;;;2.33;1.53;;;19.50;97.30;;;;;;4963875;28;20488;-66
2023/08/27 16:37:29;;;;;;;6.40;1.20;;;19.40;97.30;;;;;;4970372;28;20429;-66
2023/08/27 16:39:54;;;;;;;1.17;1.07;;;19.40;97.30;;;;;;4963638;28;20182;-65
2023/08/27 16:42:20;;;;;;;1.47;1.17;;;19.40;97.30;;;;;;4970559;28;20261;-66
2023/08/27 16:44:45;;;;;;;0.90;0.80;;;19.40;97.30;;;;;;4970198;28;20193;-66
2023/08/27 16:47:11;;;;;;;1.10;1.00;;;19.40;97.30;;;;;;4963809;28;20682;-65